createdAt,value
2022-08-10T00:00:10.295Z,2.17
2022-08-10T00:02:59.323Z,2.20
2022-08-10T00:05:52.850Z,2.27
2022-08-10T00:08:39.934Z,2.20
2022-08-10T00:11:27.706Z,2.40
2022-08-10T00:14:14.242Z,2.43
2022-08-10T00:17:00.606Z,2.90
2022-08-10T00:20:03.524Z,2.00
2022-08-10T00:22:57.972Z,2.17
2022-08-10T00:25:44.701Z,2.43
2022-08-10T00:28:31.582Z,2.23
2022-08-10T00:31:17.723Z,2.40
2022-08-10T00:34:04.319Z,2.23
2022-08-10T00:36:50.624Z,2.20
2022-08-10T00:39:39.446Z,2.20
2022-08-10T00:42:26.342Z,2.33
2022-08-10T00:45:13.558Z,2.97
2022-08-10T00:47:59.838Z,1.90
2022-08-10T00:50:46.957Z,1.93
2022-08-10T00:53:33.479Z,2.40
2022-08-10T00:57:07.914Z,2.50
2022-08-10T00:59:26.661Z,2.30
2022-08-10T01:02:13.143Z,2.20
2022-08-10T01:05:08.908Z,2.30
2022-08-10T01:08:31.760Z,1.90
2022-08-10T01:12:28.627Z,2.20
2022-08-10T01:14:55.846Z,2.60
2022-08-10T01:21:59.234Z,2.40
2022-08-10T01:24:54.279Z,2.10
2022-08-10T01:27:58.535Z,2.60
2022-08-10T01:30:47.073Z,2.20
2022-08-10T01:33:58.851Z,2.33
2022-08-10T01:36:53.954Z,2.93
2022-08-10T01:39:45.397Z,2.30
2022-08-10T01:42:35.223Z,2.47
2022-08-10T01:45:25.507Z,2.40
2022-08-10T01:48:33.570Z,2.30
2022-08-10T01:51:38.552Z,2.27
2022-08-10T01:54:26.953Z,2.80
2022-08-10T01:57:16.702Z,2.40
2022-08-10T02:00:04.827Z,2.40
2022-08-10T02:02:55.125Z,2.53
2022-08-10T02:05:44.565Z,2.77
2022-08-10T02:08:34.189Z,2.40
2022-08-10T02:11:22.894Z,2.20
2022-08-10T02:14:13.406Z,2.70
2022-08-10T02:17:02.616Z,2.50
2022-08-10T02:19:51.235Z,2.63
2022-08-10T02:22:39.439Z,3.13
2022-08-10T02:25:42.041Z,3.03
2022-08-10T02:28:33.154Z,2.93
2022-08-10T02:31:23.305Z,3.77
2022-08-10T02:34:12.578Z,3.00
2022-08-10T02:37:03.123Z,2.90
2022-08-10T02:39:57.806Z,2.67
2022-08-10T02:45:21.402Z,2.60
2022-08-10T02:46:08.443Z,2.77
2022-08-10T02:49:03.881Z,2.67
2022-08-10T02:52:06.290Z,2.53
2022-08-10T02:55:06.168Z,2.57
2022-08-10T02:58:18.080Z,2.90
2022-08-10T03:01:09.289Z,2.90
2022-08-10T03:04:07.826Z,2.70
2022-08-10T03:06:58.138Z,2.87
2022-08-10T03:09:45.884Z,3.00
2022-08-10T03:12:47.181Z,3.37
2022-08-10T03:15:36.213Z,3.20
2022-08-10T03:18:24.671Z,3.23
2022-08-10T03:21:13.626Z,2.93
2022-08-10T03:24:02.681Z,3.03
2022-08-10T03:27:10.588Z,2.60
2022-08-10T03:30:28.669Z,2.83
2022-08-10T03:33:06.397Z,3.23
2022-08-10T03:36:42.690Z,2.83
2022-08-10T03:38:59.431Z,2.60
2022-08-10T03:41:54.263Z,3.10
2022-08-10T03:44:46.230Z,2.53
2022-08-10T03:47:42.550Z,2.67
2022-08-10T03:50:51.477Z,3.00
2022-08-10T03:54:04.871Z,2.73
2022-08-10T03:56:44.485Z,3.10
2022-08-10T03:59:31.449Z,3.07
2022-08-10T04:02:44.993Z,3.10
2022-08-10T04:05:26.201Z,3.27
2022-08-10T04:08:25.178Z,3.20
2022-08-10T04:11:11.994Z,2.70
2022-08-10T04:13:58.452Z,3.17
2022-08-10T04:16:44.671Z,2.90
2022-08-10T04:19:40.682Z,2.90
2022-08-10T04:22:29.017Z,2.87
2022-08-10T04:25:16.529Z,3.20
2022-08-10T04:28:03.637Z,3.10
2022-08-10T04:30:52.473Z,3.00
2022-08-10T04:33:43.179Z,2.90
2022-08-10T04:36:30.945Z,3.10
2022-08-10T04:39:17.948Z,3.10
2022-08-10T04:42:05.661Z,3.13
2022-08-10T04:44:51.940Z,2.47
2022-08-10T04:48:00.886Z,3.23
2022-08-10T04:50:45.022Z,2.97
2022-08-10T04:54:05.857Z,3.40
2022-08-10T04:56:41.854Z,3.10
2022-08-10T04:59:28.454Z,2.70
2022-08-10T05:02:29.379Z,2.67
2022-08-10T05:05:18.070Z,2.93
2022-08-10T05:08:04.864Z,3.57
2022-08-10T05:10:51.063Z,3.23
2022-08-10T05:13:37.186Z,3.17
2022-08-10T05:16:32.397Z,2.50
2022-08-10T05:19:23.456Z,3.17
2022-08-10T05:22:25.409Z,2.90
2022-08-10T05:25:14.422Z,2.53
2022-08-10T05:28:04.391Z,2.83
2022-08-10T05:30:52.844Z,2.50
2022-08-10T05:33:39.486Z,2.57
2022-08-10T05:36:26.726Z,2.40
2022-08-10T05:39:15.082Z,2.60
2022-08-10T05:42:02.280Z,2.73
2022-08-10T05:44:48.582Z,2.30
2022-08-10T05:48:54.461Z,2.87
2022-08-10T05:50:41.263Z,2.87
2022-08-10T05:54:01.429Z,2.53
2022-08-10T05:56:53.932Z,2.47
2022-08-10T06:00:12.634Z,2.70
2022-08-10T06:03:14.635Z,3.57
2022-08-10T06:06:02.928Z,2.30
2022-08-10T06:08:51.130Z,2.60
2022-08-10T06:12:28.685Z,2.90
2022-08-10T06:15:05.225Z,3.37
2022-08-10T06:18:01.638Z,2.90
2022-08-10T06:20:50.146Z,2.30
2022-08-10T06:23:37.774Z,2.77
2022-08-10T06:26:24.113Z,3.23
2022-08-10T06:29:13.466Z,2.77
2022-08-10T06:32:01.743Z,3.47
2022-08-10T06:34:54.765Z,2.50
2022-08-10T06:37:43.270Z,2.50
2022-08-10T06:40:41.776Z,2.67
2022-08-10T06:43:29.622Z,2.20
2022-08-10T06:46:19.597Z,2.37
2022-08-10T06:49:09.490Z,2.40
2022-08-10T06:51:58.002Z,2.40
2022-08-10T06:54:45.118Z,2.33
2022-08-10T06:57:35.349Z,2.00
2022-08-10T07:00:31.773Z,2.50
2022-08-10T07:03:22.745Z,2.43
2022-08-10T07:06:13.736Z,2.10
2022-08-10T07:09:04.455Z,2.03
2022-08-10T07:11:52.186Z,2.30
2022-08-10T07:14:43.588Z,2.47
2022-08-10T07:17:37.243Z,2.30
2022-08-10T07:20:27.219Z,2.20
2022-08-10T07:23:58.541Z,2.03
2022-08-10T07:26:24.019Z,2.10
2022-08-10T07:29:26.486Z,2.00
2022-08-10T07:32:20.958Z,2.20
2022-08-10T07:35:10.891Z,2.30
2022-08-10T07:37:59.912Z,2.17
2022-08-10T07:40:53.072Z,1.97
2022-08-10T07:43:40.889Z,2.00
2022-08-10T07:46:29.604Z,2.00
2022-08-10T07:49:23.503Z,2.07
2022-08-10T07:52:11.042Z,1.73
2022-08-10T07:54:58.631Z,2.00
2022-08-10T07:57:49.378Z,1.90
2022-08-10T08:00:37.159Z,1.80
2022-08-10T08:03:25.400Z,2.30
2022-08-10T08:06:13.313Z,1.93
2022-08-10T08:09:03.497Z,1.93
2022-08-10T08:11:51.422Z,2.47
2022-08-10T08:14:40.041Z,2.03
2022-08-10T08:17:35.727Z,1.77
2022-08-10T08:20:25.489Z,1.70
2022-08-10T08:24:06.697Z,1.70
2022-08-10T08:26:23.037Z,1.70
2022-08-10T08:29:12.803Z,1.83
2022-08-10T08:32:02.554Z,1.45
2022-08-10T08:34:54.782Z,2.28
2022-08-10T08:38:32.976Z,1.48
2022-08-10T08:41:03.814Z,1.90
2022-08-10T08:44:03.428Z,1.92
2022-08-10T08:48:02.286Z,1.70
2022-08-10T08:50:30.844Z,1.60
2022-08-10T08:53:23.253Z,1.63
2022-08-10T08:56:24.888Z,1.60
2022-08-10T08:59:25.271Z,1.90
2022-08-10T09:02:24.714Z,1.80
2022-08-10T09:05:59.409Z,1.52
2022-08-10T09:08:56.028Z,1.60
2022-08-10T09:12:10.274Z,1.80
2022-08-10T09:15:11.598Z,1.63
2022-08-10T09:18:27.642Z,1.70
2022-08-10T09:21:43.130Z,1.67
2022-08-10T09:24:41.717Z,1.73
2022-08-10T09:27:49.245Z,1.85
2022-08-10T09:31:22.521Z,1.90
2022-08-10T09:36:24.403Z,1.90
2022-08-10T09:38:01.148Z,1.50
2022-08-10T09:41:14.140Z,1.75
2022-08-10T09:44:18.819Z,1.60
2022-08-10T09:47:15.017Z,1.70
2022-08-10T09:50:10.919Z,1.50
2022-08-10T09:53:03.334Z,1.90
2022-08-10T09:56:17.847Z,1.77
2022-08-10T10:00:00.203Z,1.48
2022-08-10T10:03:01.907Z,1.60
2022-08-10T10:06:12.287Z,1.40
2022-08-10T10:09:27.129Z,1.77
2022-08-10T10:12:25.889Z,1.42
2022-08-10T10:15:27.874Z,1.60
2022-08-10T10:18:20.049Z,1.60
2022-08-10T10:21:55.851Z,1.77
2022-08-10T10:24:40.175Z,1.50
2022-08-10T10:27:36.600Z,1.40
2022-08-10T10:30:31.028Z,1.67
2022-08-10T10:33:27.016Z,1.50
2022-08-10T10:36:16.923Z,1.60
2022-08-10T10:39:04.881Z,1.55
2022-08-10T10:42:04.545Z,1.95
2022-08-10T10:45:10.916Z,1.77
2022-08-10T10:48:28.903Z,1.40
2022-08-10T10:51:28.992Z,1.70
2022-08-10T10:54:36.125Z,1.45
2022-08-10T10:58:00.118Z,1.65
2022-08-10T11:00:56.755Z,1.50
2022-08-10T11:03:58.655Z,1.80
2022-08-10T11:07:03.110Z,1.50
2022-08-10T11:10:03.268Z,1.70
2022-08-10T11:14:25.881Z,1.65
2022-08-10T11:16:26.020Z,1.70
2022-08-10T11:19:21.017Z,1.50
2022-08-10T11:22:36.638Z,1.27
2022-08-10T11:25:38.570Z,1.70
2022-08-10T11:28:37.117Z,1.75
2022-08-10T11:31:45.675Z,1.50
2022-08-10T11:35:10.595Z,1.40
2022-08-10T11:38:30.048Z,1.77
2022-08-10T11:42:12.384Z,1.80
2022-08-10T11:44:43.546Z,1.58
2022-08-10T11:47:48.220Z,1.85
2022-08-10T11:50:52.119Z,1.75
2022-08-10T11:54:04.662Z,1.38
2022-08-10T11:56:58.557Z,1.60
2022-08-10T11:59:58.346Z,1.30
2022-08-10T12:02:55.297Z,1.50
2022-08-10T12:05:53.806Z,1.58
2022-08-10T12:10:06.238Z,1.55
2022-08-10T12:11:50.774Z,1.50
2022-08-10T12:14:52.703Z,1.40
2022-08-10T12:17:53.853Z,1.30
2022-08-10T12:20:43.594Z,1.70
2022-08-10T12:23:42.595Z,1.38
2022-08-10T12:26:39.586Z,1.83
2022-08-10T12:29:45.975Z,1.85
2022-08-10T12:32:47.482Z,1.50
2022-08-10T12:36:14.966Z,1.60
2022-08-10T12:39:26.782Z,1.95
2022-08-10T12:42:37.083Z,1.58
2022-08-10T12:45:50.094Z,1.58
2022-08-10T12:48:48.307Z,1.80
2022-08-10T12:51:37.787Z,1.30
2022-08-10T12:54:32.005Z,1.40
2022-08-10T12:57:24.638Z,1.30
2022-08-10T13:00:17.348Z,1.60
2022-08-10T13:03:06.359Z,1.73
2022-08-10T13:06:02.141Z,1.65
2022-08-10T13:09:10.985Z,1.83
2022-08-10T13:12:37.940Z,1.60
2022-08-10T13:15:49.839Z,1.60
2022-08-10T13:18:38.805Z,1.50
2022-08-10T13:21:31.410Z,1.50
2022-08-10T13:24:28.765Z,1.40
2022-08-10T13:27:26.048Z,1.48
2022-08-10T13:30:14.356Z,1.52
2022-08-10T13:33:01.783Z,1.75
2022-08-10T13:35:49.527Z,1.50
2022-08-10T13:38:48.722Z,1.30
2022-08-10T13:41:42.346Z,1.50
2022-08-10T13:44:38.227Z,1.73
2022-08-10T13:47:31.749Z,1.40
2022-08-10T13:50:37.453Z,1.60
2022-08-10T13:53:30.954Z,2.03
2022-08-10T13:56:18.822Z,1.42
2022-08-10T13:59:09.816Z,1.58
2022-08-10T14:02:00.669Z,1.50
2022-08-10T14:04:47.908Z,1.60
2022-08-10T14:07:39.123Z,1.40
2022-08-10T14:11:04.097Z,1.65
2022-08-10T14:13:56.813Z,1.73
2022-08-10T14:16:44.843Z,1.50
2022-08-10T14:19:36.655Z,1.55
2022-08-10T14:22:33.669Z,1.67
2022-08-10T14:25:21.351Z,1.50
2022-08-10T14:28:07.846Z,1.60
2022-08-10T14:31:06.498Z,1.73
2022-08-10T14:33:57.280Z,1.40
2022-08-10T14:37:06.635Z,1.67
2022-08-10T14:40:00.317Z,1.50
2022-08-10T14:43:02.181Z,1.50
2022-08-10T14:45:56.782Z,1.55
2022-08-10T14:48:50.059Z,1.40
2022-08-10T14:51:44.550Z,1.60
2022-08-10T14:54:33.615Z,1.48
2022-08-10T14:57:21.258Z,1.45
2022-08-10T15:00:29.398Z,1.50
2022-08-10T15:03:58.874Z,1.35
2022-08-10T15:06:30.841Z,1.48
2022-08-10T15:09:20.219Z,1.70
2022-08-10T15:12:14.968Z,1.60
2022-08-10T15:15:09.468Z,1.45
2022-08-10T15:17:59.194Z,1.60
2022-08-10T15:20:45.868Z,1.60
2022-08-10T15:24:05.312Z,1.30
2022-08-10T15:26:57.669Z,1.67
2022-08-10T15:29:57.697Z,1.55
2022-08-10T15:33:09.574Z,1.92
2022-08-10T15:36:17.340Z,1.73
2022-08-10T15:40:24.404Z,1.50
2022-08-10T15:42:37.628Z,1.60
2022-08-10T15:45:24.965Z,1.30
2022-08-10T15:48:14.500Z,1.60
2022-08-10T15:51:06.462Z,1.77
2022-08-10T15:53:55.862Z,1.30
2022-08-10T15:57:00.285Z,1.60
2022-08-10T15:59:55.103Z,1.70
2022-08-10T16:02:54.360Z,1.70
2022-08-10T16:06:01.972Z,1.55
2022-08-10T16:08:57.136Z,1.40
2022-08-10T16:12:29.201Z,1.45
2022-08-10T16:15:19.618Z,1.88
2022-08-10T16:18:09.933Z,1.50
2022-08-10T16:20:59.510Z,1.60
2022-08-10T16:24:15.004Z,1.50
2022-08-10T16:27:07.313Z,1.30
2022-08-10T16:30:00.565Z,1.52
2022-08-10T16:32:49.775Z,1.50
2022-08-10T16:35:39.391Z,1.52
2022-08-10T16:38:26.967Z,1.70
2022-08-10T16:41:54.945Z,1.42
2022-08-10T16:44:29.245Z,1.80
2022-08-10T16:47:16.439Z,1.50
2022-08-10T16:50:06.782Z,1.38
2022-08-10T16:52:55.492Z,1.70
2022-08-10T16:55:54.392Z,1.60
2022-08-10T16:58:54.490Z,1.60
2022-08-10T17:01:42.778Z,1.50
2022-08-10T17:04:40.767Z,1.48
2022-08-10T17:07:30.542Z,1.65
2022-08-10T17:10:20.149Z,1.70
2022-08-10T17:13:08.312Z,1.55
2022-08-10T17:16:02.298Z,1.58
2022-08-10T17:18:50.180Z,1.50
2022-08-10T17:21:51.061Z,2.00
2022-08-10T17:24:46.214Z,1.70
2022-08-10T17:28:05.748Z,1.90
2022-08-10T17:30:58.068Z,1.58
2022-08-10T17:33:47.712Z,1.80
2022-08-10T17:36:36.645Z,1.38
2022-08-10T17:39:31.491Z,1.95
2022-08-10T17:42:21.864Z,1.52
2022-08-10T17:45:46.310Z,1.77
2022-08-10T17:48:32.324Z,1.80
2022-08-10T17:51:19.009Z,1.90
2022-08-10T17:54:13.947Z,1.52
2022-08-10T17:57:14.662Z,1.90
2022-08-10T18:00:02.587Z,2.13
2022-08-10T18:02:52.256Z,2.00
2022-08-10T18:05:39.019Z,2.03
2022-08-10T18:08:29.641Z,1.58
2022-08-10T18:11:19.294Z,1.98
2022-08-10T18:14:07.326Z,1.85
2022-08-10T18:16:56.501Z,1.77
2022-08-10T18:19:48.094Z,1.50
2022-08-10T18:22:38.998Z,1.88
2022-08-10T18:25:34.939Z,1.70
2022-08-10T18:28:22.546Z,1.80
2022-08-10T18:31:16.226Z,1.80
2022-08-10T18:34:05.541Z,1.75
2022-08-10T18:37:02.262Z,1.92
2022-08-10T18:39:54.018Z,1.83
2022-08-10T18:42:43.541Z,2.30
2022-08-10T18:45:33.084Z,1.70
2022-08-10T18:48:22.666Z,2.00
2022-08-10T18:51:12.181Z,2.00
2022-08-10T18:54:39.831Z,2.35
2022-08-10T18:57:55.981Z,2.28
2022-08-10T19:01:07.655Z,2.83
2022-08-10T19:04:13.897Z,2.30
2022-08-10T19:07:30.346Z,2.40
2022-08-10T19:10:33.268Z,2.20
2022-08-10T19:13:50.693Z,1.70
2022-08-10T19:16:40.333Z,1.83
2022-08-10T19:19:50.698Z,2.00
2022-08-10T19:22:53.876Z,2.10
2022-08-10T19:26:39.303Z,2.00
2022-08-10T19:30:12.189Z,1.70
2022-08-10T19:32:52.232Z,1.73
2022-08-10T19:36:04.125Z,1.80
2022-08-10T19:39:08.611Z,1.67
2022-08-10T19:42:21.166Z,1.80
2022-08-10T19:46:01.815Z,1.70
2022-08-10T19:49:01.087Z,1.90
2022-08-10T19:52:10.959Z,2.40
2022-08-10T19:55:04.681Z,2.30
2022-08-10T19:57:56.629Z,2.60
2022-08-10T20:00:45.984Z,2.33
2022-08-10T20:03:32.104Z,2.40
2022-08-10T20:06:28.473Z,2.23
2022-08-10T20:09:21.877Z,2.10
2022-08-10T20:12:33.987Z,2.00
2022-08-10T20:15:42.312Z,1.80
2022-08-10T20:19:08.147Z,1.73
2022-08-10T20:22:00.142Z,2.00
2022-08-10T20:24:56.083Z,1.93
2022-08-10T20:28:14.620Z,1.90
2022-08-10T20:31:16.983Z,1.70
2022-08-10T20:34:15.545Z,1.87
2022-08-10T20:37:46.868Z,1.70
2022-08-10T20:40:47.118Z,1.80
2022-08-10T20:43:50.831Z,1.93
2022-08-10T20:46:50.369Z,2.30
2022-08-10T20:49:58.634Z,2.10
2022-08-10T20:52:49.530Z,1.80
2022-08-10T20:56:09.887Z,1.90
2022-08-10T20:59:09.293Z,1.70
2022-08-10T21:02:24.254Z,2.10
2022-08-10T21:05:36.487Z,1.90
2022-08-10T21:08:30.147Z,2.03
2022-08-10T21:11:57.735Z,1.80
2022-08-10T21:15:06.169Z,1.90
2022-08-10T21:18:20.422Z,2.10
2022-08-10T21:21:41.545Z,1.80
2022-08-10T21:24:41.506Z,2.20
2022-08-10T21:28:00.934Z,2.07
2022-08-10T21:31:14.107Z,2.17
2022-08-10T21:37:57.038Z,1.80
2022-08-10T21:41:57.025Z,2.03
2022-08-10T21:45:17.110Z,2.07
2022-08-10T21:48:57.160Z,2.33
2022-08-10T21:52:09.706Z,2.60
2022-08-10T21:55:57.235Z,2.20
2022-08-10T21:59:26.591Z,2.93
2022-08-10T22:02:34.456Z,2.07
2022-08-10T22:05:44.684Z,2.03
2022-08-10T22:08:59.342Z,2.00
2022-08-10T22:12:10.878Z,2.20
2022-08-10T22:16:05.640Z,1.90
2022-08-10T22:19:14.639Z,2.13
2022-08-10T22:22:28.262Z,2.20
2022-08-10T22:26:00.337Z,2.33
2022-08-10T22:29:13.095Z,2.43
2022-08-10T22:31:24.823Z,1.87
2022-08-10T22:32:27.478Z,2.60
2022-08-10T22:36:11.291Z,2.20
2022-08-10T22:40:11.657Z,2.20
2022-08-10T22:43:11.036Z,1.93
2022-08-10T22:46:22.014Z,2.20
2022-08-10T22:49:09.080Z,2.07
2022-08-10T22:52:02.057Z,2.00
2022-08-10T22:55:14.038Z,2.60
2022-08-10T22:58:19.361Z,2.10
2022-08-10T23:01:36.383Z,2.10
2022-08-10T23:04:25.530Z,1.90
2022-08-10T23:07:18.037Z,2.17
2022-08-10T23:10:09.121Z,1.90
2022-08-10T23:12:55.604Z,2.17
2022-08-10T23:16:37.352Z,2.10
2022-08-10T23:19:28.430Z,2.30
2022-08-10T23:22:18.458Z,2.03
2022-08-10T23:25:09.533Z,2.20
2022-08-10T23:28:12.284Z,2.20
2022-08-10T23:31:00.478Z,2.13
2022-08-10T23:33:52.118Z,1.90
2022-08-10T23:36:40.151Z,1.90
2022-08-10T23:39:31.375Z,2.10
2022-08-10T23:42:20.666Z,2.23
2022-08-10T23:45:14.942Z,1.90
2022-08-10T23:48:02.113Z,2.00
2022-08-10T23:51:02.702Z,2.20
2022-08-10T23:53:50.119Z,1.90
2022-08-10T23:56:42.735Z,2.20
2022-08-10T23:59:31.739Z,1.77
